sensor_id;sensor_type;location;lat;lon;timestamp;P1;durP1;ratioP1;P2;durP2;ratioP2
33864;SDS011;20159;51.072;13.526;2022-11-03T00:02:19;9.70;;;3.90;;
33864;SDS011;20159;51.072;13.526;2022-11-03T00:04:45;8.35;;;3.60;;
33864;SDS011;20159;51.072;13.526;2022-11-03T00:07:10;6.40;;;3.70;;
33864;SDS011;20159;51.072;13.526;2022-11-03T00:09:36;9.40;;;3.67;;
33864;SDS011;20159;51.072;13.526;2022-11-03T00:12:01;8.20;;;3.70;;
33864;SDS011;20159;51.072;13.526;2022-11-03T00:14:27;6.15;;;3.38;;
33864;SDS011;20159;51.072;13.526;2022-11-03T00:16:53;8.63;;;3.33;;
33864;SDS011;20159;51.072;13.526;2022-11-03T00:19:18;8.07;;;3.75;;
33864;SDS011;20159;51.072;13.526;2022-11-03T00:21:45;6.38;;;3.17;;
33864;SDS011;20159;51.072;13.526;2022-11-03T00:24:11;7.00;;;3.80;;
33864;SDS011;20159;51.072;13.526;2022-11-03T00:26:37;8.20;;;2.97;;
33864;SDS011;20159;51.072;13.526;2022-11-03T00:29:10;6.78;;;3.45;;
33864;SDS011;20159;51.072;13.526;2022-11-03T00:31:38;8.07;;;3.45;;
33864;SDS011;20159;51.072;13.526;2022-11-03T00:34:05;7.38;;;3.35;;
33864;SDS011;20159;51.072;13.526;2022-11-03T00:36:33;8.20;;;3.80;;
33864;SDS011;20159;51.072;13.526;2022-11-03T00:39:03;8.38;;;3.60;;
33864;SDS011;20159;51.072;13.526;2022-11-03T00:41:29;7.53;;;3.13;;
33864;SDS011;20159;51.072;13.526;2022-11-03T00:43:55;7.18;;;3.58;;
33864;SDS011;20159;51.072;13.526;2022-11-03T00:46:21;6.38;;;3.65;;
33864;SDS011;20159;51.072;13.526;2022-11-03T00:48:48;10.23;;;3.38;;
33864;SDS011;20159;51.072;13.526;2022-11-03T00:56:15;4.97;;;3.10;;
33864;SDS011;20159;51.072;13.526;2022-11-03T00:58:46;7.07;;;3.55;;
33864;SDS011;20159;51.072;13.526;2022-11-03T01:01:13;4.05;;;2.78;;
33864;SDS011;20159;51.072;13.526;2022-11-03T01:03:41;5.30;;;3.10;;
33864;SDS011;20159;51.072;13.526;2022-11-03T01:06:32;6.55;;;2.90;;
33864;SDS011;20159;51.072;13.526;2022-11-03T01:09:14;5.25;;;2.88;;
33864;SDS011;20159;51.072;13.526;2022-11-03T01:14:41;6.13;;;2.70;;
33864;SDS011;20159;51.072;13.526;2022-11-03T01:17:11;5.20;;;2.72;;
33864;SDS011;20159;51.072;13.526;2022-11-03T01:19:38;8.88;;;3.38;;
33864;SDS011;20159;51.072;13.526;2022-11-03T01:22:03;7.00;;;2.88;;
33864;SDS011;20159;51.072;13.526;2022-11-03T01:24:29;4.90;;;2.92;;
33864;SDS011;20159;51.072;13.526;2022-11-03T01:26:55;7.28;;;3.10;;
33864;SDS011;20159;51.072;13.526;2022-11-03T01:29:21;5.57;;;3.00;;
33864;SDS011;20159;51.072;13.526;2022-11-03T01:31:47;6.68;;;3.42;;
33864;SDS011;20159;51.072;13.526;2022-11-03T01:34:13;6.88;;;2.75;;
33864;SDS011;20159;51.072;13.526;2022-11-03T01:36:41;8.50;;;2.95;;
33864;SDS011;20159;51.072;13.526;2022-11-03T01:39:09;9.05;;;3.25;;
33864;SDS011;20159;51.072;13.526;2022-11-03T01:41:35;6.53;;;2.90;;
33864;SDS011;20159;51.072;13.526;2022-11-03T01:44:24;4.97;;;3.05;;
33864;SDS011;20159;51.072;13.526;2022-11-03T01:49:22;4.30;;;2.33;;
33864;SDS011;20159;51.072;13.526;2022-11-03T01:51:53;4.32;;;2.47;;
33864;SDS011;20159;51.072;13.526;2022-11-03T01:54:23;8.52;;;2.92;;
33864;SDS011;20159;51.072;13.526;2022-11-03T01:56:51;4.40;;;2.58;;
33864;SDS011;20159;51.072;13.526;2022-11-03T01:59:19;6.35;;;3.13;;
33864;SDS011;20159;51.072;13.526;2022-11-03T02:01:46;7.22;;;3.00;;
33864;SDS011;20159;51.072;13.526;2022-11-03T02:04:13;6.05;;;2.97;;
33864;SDS011;20159;51.072;13.526;2022-11-03T02:07:01;6.63;;;2.92;;
33864;SDS011;20159;51.072;13.526;2022-11-03T02:09:38;6.57;;;3.40;;
33864;SDS011;20159;51.072;13.526;2022-11-03T02:12:04;7.82;;;3.03;;
33864;SDS011;20159;51.072;13.526;2022-11-03T02:14:31;5.20;;;2.53;;
33864;SDS011;20159;51.072;13.526;2022-11-03T02:16:58;10.05;;;2.88;;
33864;SDS011;20159;51.072;13.526;2022-11-03T02:19:31;4.53;;;2.85;;
33864;SDS011;20159;51.072;13.526;2022-11-03T02:22:29;6.20;;;3.13;;
33864;SDS011;20159;51.072;13.526;2022-11-03T02:28:12;5.80;;;2.58;;
33864;SDS011;20159;51.072;13.526;2022-11-03T02:36:01;6.25;;;2.42;;
33864;SDS011;20159;51.072;13.526;2022-11-03T02:38:37;9.05;;;2.85;;
33864;SDS011;20159;51.072;13.526;2022-11-03T02:41:10;7.03;;;2.60;;
33864;SDS011;20159;51.072;13.526;2022-11-03T02:43:37;6.05;;;2.80;;
33864;SDS011;20159;51.072;13.526;2022-11-03T02:46:04;5.72;;;2.72;;
33864;SDS011;20159;51.072;13.526;2022-11-03T02:48:31;8.15;;;2.60;;
33864;SDS011;20159;51.072;13.526;2022-11-03T02:50:57;6.22;;;2.83;;
33864;SDS011;20159;51.072;13.526;2022-11-03T02:53:22;6.10;;;2.70;;
33864;SDS011;20159;51.072;13.526;2022-11-03T02:55:50;8.65;;;2.90;;
33864;SDS011;20159;51.072;13.526;2022-11-03T02:58:33;8.48;;;2.83;;
33864;SDS011;20159;51.072;13.526;2022-11-03T03:03:48;7.45;;;2.47;;
33864;SDS011;20159;51.072;13.526;2022-11-03T03:06:18;7.85;;;2.58;;
33864;SDS011;20159;51.072;13.526;2022-11-03T03:08:49;7.50;;;2.70;;
33864;SDS011;20159;51.072;13.526;2022-11-03T03:11:18;6.07;;;2.50;;
33864;SDS011;20159;51.072;13.526;2022-11-03T03:14:02;4.22;;;2.20;;
33864;SDS011;20159;51.072;13.526;2022-11-03T03:16:30;8.85;;;2.92;;
33864;SDS011;20159;51.072;13.526;2022-11-03T03:19:10;7.07;;;2.97;;
33864;SDS011;20159;51.072;13.526;2022-11-03T03:21:51;7.90;;;2.70;;
33864;SDS011;20159;51.072;13.526;2022-11-03T03:26:50;6.28;;;2.70;;
33864;SDS011;20159;51.072;13.526;2022-11-03T03:29:25;5.95;;;2.42;;
33864;SDS011;20159;51.072;13.526;2022-11-03T03:32:06;7.07;;;3.22;;
33864;SDS011;20159;51.072;13.526;2022-11-03T03:34:35;7.25;;;3.20;;
33864;SDS011;20159;51.072;13.526;2022-11-03T03:37:03;5.75;;;2.90;;
33864;SDS011;20159;51.072;13.526;2022-11-03T03:39:30;7.10;;;2.78;;
33864;SDS011;20159;51.072;13.526;2022-11-03T03:42:00;7.85;;;3.25;;
33864;SDS011;20159;51.072;13.526;2022-11-03T03:44:27;10.38;;;2.80;;
33864;SDS011;20159;51.072;13.526;2022-11-03T03:46:58;6.47;;;2.67;;
33864;SDS011;20159;51.072;13.526;2022-11-03T03:49:27;5.88;;;2.83;;
33864;SDS011;20159;51.072;13.526;2022-11-03T03:51:52;5.15;;;2.55;;
33864;SDS011;20159;51.072;13.526;2022-11-03T03:54:18;6.05;;;2.53;;
33864;SDS011;20159;51.072;13.526;2022-11-03T03:56:45;5.38;;;2.42;;
33864;SDS011;20159;51.072;13.526;2022-11-03T03:59:17;7.78;;;2.83;;
33864;SDS011;20159;51.072;13.526;2022-11-03T04:01:42;8.27;;;2.90;;
33864;SDS011;20159;51.072;13.526;2022-11-03T04:04:08;6.93;;;3.05;;
33864;SDS011;20159;51.072;13.526;2022-11-03T04:06:33;7.13;;;3.55;;
33864;SDS011;20159;51.072;13.526;2022-11-03T04:08:59;7.15;;;2.97;;
33864;SDS011;20159;51.072;13.526;2022-11-03T04:11:24;5.35;;;2.75;;
33864;SDS011;20159;51.072;13.526;2022-11-03T04:14:09;4.70;;;2.47;;
33864;SDS011;20159;51.072;13.526;2022-11-03T04:16:53;5.78;;;2.30;;
33864;SDS011;20159;51.072;13.526;2022-11-03T04:19:37;5.95;;;2.67;;
33864;SDS011;20159;51.072;13.526;2022-11-03T04:22:21;6.43;;;2.80;;
33864;SDS011;20159;51.072;13.526;2022-11-03T04:24:49;5.18;;;2.78;;
33864;SDS011;20159;51.072;13.526;2022-11-03T04:27:32;7.30;;;2.90;;
33864;SDS011;20159;51.072;13.526;2022-11-03T04:30:01;5.43;;;3.47;;
33864;SDS011;20159;51.072;13.526;2022-11-03T04:32:33;8.73;;;3.20;;
33864;SDS011;20159;51.072;13.526;2022-11-03T04:35:00;9.02;;;3.40;;
33864;SDS011;20159;51.072;13.526;2022-11-03T04:37:27;5.82;;;3.50;;
33864;SDS011;20159;51.072;13.526;2022-11-03T04:39:57;6.57;;;3.15;;
33864;SDS011;20159;51.072;13.526;2022-11-03T04:42:29;5.35;;;3.00;;
33864;SDS011;20159;51.072;13.526;2022-11-03T04:44:57;5.82;;;2.78;;
33864;SDS011;20159;51.072;13.526;2022-11-03T04:47:24;5.70;;;2.97;;
33864;SDS011;20159;51.072;13.526;2022-11-03T04:49:50;4.75;;;2.75;;
33864;SDS011;20159;51.072;13.526;2022-11-03T04:52:18;4.57;;;2.45;;
33864;SDS011;20159;51.072;13.526;2022-11-03T04:54:45;7.07;;;2.50;;
33864;SDS011;20159;51.072;13.526;2022-11-03T04:57:13;5.30;;;2.72;;
33864;SDS011;20159;51.072;13.526;2022-11-03T04:59:40;9.75;;;2.70;;
33864;SDS011;20159;51.072;13.526;2022-11-03T05:02:08;5.05;;;2.75;;
33864;SDS011;20159;51.072;13.526;2022-11-03T05:04:40;5.13;;;2.88;;
33864;SDS011;20159;51.072;13.526;2022-11-03T05:07:18;5.63;;;2.70;;
33864;SDS011;20159;51.072;13.526;2022-11-03T05:09:49;5.40;;;2.67;;
33864;SDS011;20159;51.072;13.526;2022-11-03T05:12:15;6.85;;;2.92;;
33864;SDS011;20159;51.072;13.526;2022-11-03T05:14:42;7.93;;;3.03;;
33864;SDS011;20159;51.072;13.526;2022-11-03T05:17:20;4.53;;;3.10;;
33864;SDS011;20159;51.072;13.526;2022-11-03T05:19:46;6.53;;;3.03;;
33864;SDS011;20159;51.072;13.526;2022-11-03T05:22:18;8.98;;;3.03;;
33864;SDS011;20159;51.072;13.526;2022-11-03T05:24:46;7.47;;;3.03;;
33864;SDS011;20159;51.072;13.526;2022-11-03T05:27:15;5.35;;;2.97;;
33864;SDS011;20159;51.072;13.526;2022-11-03T05:29:44;4.47;;;3.00;;
33864;SDS011;20159;51.072;13.526;2022-11-03T05:32:12;6.18;;;3.08;;
33864;SDS011;20159;51.072;13.526;2022-11-03T05:34:41;4.60;;;3.30;;
33864;SDS011;20159;51.072;13.526;2022-11-03T05:39:40;5.50;;;3.63;;
33864;SDS011;20159;51.072;13.526;2022-11-03T05:44:47;6.18;;;3.97;;
33864;SDS011;20159;51.072;13.526;2022-11-03T05:47:22;5.78;;;3.97;;
33864;SDS011;20159;51.072;13.526;2022-11-03T05:49:53;8.57;;;4.30;;
33864;SDS011;20159;51.072;13.526;2022-11-03T05:52:24;6.30;;;3.80;;
33864;SDS011;20159;51.072;13.526;2022-11-03T05:54:55;9.70;;;3.92;;
33864;SDS011;20159;51.072;13.526;2022-11-03T05:57:23;6.25;;;3.90;;
33864;SDS011;20159;51.072;13.526;2022-11-03T05:59:52;7.15;;;3.90;;
33864;SDS011;20159;51.072;13.526;2022-11-03T06:04:52;6.13;;;4.05;;
33864;SDS011;20159;51.072;13.526;2022-11-03T06:07:20;6.38;;;3.47;;
33864;SDS011;20159;51.072;13.526;2022-11-03T06:09:49;5.93;;;3.25;;
33864;SDS011;20159;51.072;13.526;2022-11-03T06:12:17;5.13;;;3.22;;
33864;SDS011;20159;51.072;13.526;2022-11-03T06:14:44;7.93;;;3.75;;
33864;SDS011;20159;51.072;13.526;2022-11-03T06:17:23;7.95;;;3.50;;
33864;SDS011;20159;51.072;13.526;2022-11-03T06:19:51;9.00;;;4.20;;
33864;SDS011;20159;51.072;13.526;2022-11-03T06:22:23;5.50;;;3.70;;
33864;SDS011;20159;51.072;13.526;2022-11-03T06:24:58;4.60;;;3.53;;
33864;SDS011;20159;51.072;13.526;2022-11-03T06:27:25;4.80;;;3.28;;
33864;SDS011;20159;51.072;13.526;2022-11-03T06:29:58;6.50;;;4.18;;
33864;SDS011;20159;51.072;13.526;2022-11-03T06:32:27;7.88;;;3.78;;
33864;SDS011;20159;51.072;13.526;2022-11-03T06:34:54;7.05;;;4.65;;
33864;SDS011;20159;51.072;13.526;2022-11-03T06:37:23;8.98;;;4.70;;
33864;SDS011;20159;51.072;13.526;2022-11-03T06:39:50;7.80;;;5.03;;
33864;SDS011;20159;51.072;13.526;2022-11-03T06:42:24;7.35;;;4.60;;
33864;SDS011;20159;51.072;13.526;2022-11-03T06:44:53;7.18;;;3.97;;
33864;SDS011;20159;51.072;13.526;2022-11-03T06:47:19;10.77;;;4.57;;
33864;SDS011;20159;51.072;13.526;2022-11-03T06:49:46;6.15;;;4.75;;
33864;SDS011;20159;51.072;13.526;2022-11-03T06:52:19;6.95;;;4.70;;
33864;SDS011;20159;51.072;13.526;2022-11-03T06:54:54;7.88;;;5.15;;
33864;SDS011;20159;51.072;13.526;2022-11-03T06:57:38;6.35;;;4.57;;
33864;SDS011;20159;51.072;13.526;2022-11-03T07:00:13;8.85;;;4.88;;
33864;SDS011;20159;51.072;13.526;2022-11-03T07:02:56;7.78;;;4.93;;
33864;SDS011;20159;51.072;13.526;2022-11-03T07:05:30;8.23;;;4.72;;
33864;SDS011;20159;51.072;13.526;2022-11-03T07:08:05;7.32;;;4.53;;
33864;SDS011;20159;51.072;13.526;2022-11-03T07:10:35;8.15;;;4.78;;
33864;SDS011;20159;51.072;13.526;2022-11-03T07:13:05;9.00;;;4.70;;
33864;SDS011;20159;51.072;13.526;2022-11-03T07:15:36;8.70;;;4.35;;
33864;SDS011;20159;51.072;13.526;2022-11-03T07:18:03;6.57;;;4.25;;
33864;SDS011;20159;51.072;13.526;2022-11-03T07:20:38;6.47;;;3.85;;
33864;SDS011;20159;51.072;13.526;2022-11-03T07:23:04;9.18;;;4.25;;
33864;SDS011;20159;51.072;13.526;2022-11-03T07:25:31;11.80;;;4.50;;
33864;SDS011;20159;51.072;13.526;2022-11-03T07:27:56;8.80;;;4.75;;
33864;SDS011;20159;51.072;13.526;2022-11-03T07:30:30;9.30;;;4.70;;
33864;SDS011;20159;51.072;13.526;2022-11-03T07:33:00;7.32;;;4.55;;
33864;SDS011;20159;51.072;13.526;2022-11-03T07:35:40;10.60;;;4.63;;
33864;SDS011;20159;51.072;13.526;2022-11-03T07:38:09;7.93;;;4.05;;
33864;SDS011;20159;51.072;13.526;2022-11-03T07:40:38;8.05;;;4.28;;
33864;SDS011;20159;51.072;13.526;2022-11-03T07:43:14;8.93;;;3.63;;
33864;SDS011;20159;51.072;13.526;2022-11-03T07:45:43;6.32;;;3.55;;
33864;SDS011;20159;51.072;13.526;2022-11-03T07:50:53;6.70;;;3.33;;
33864;SDS011;20159;51.072;13.526;2022-11-03T07:53:43;6.13;;;3.10;;
33864;SDS011;20159;51.072;13.526;2022-11-03T07:56:14;6.82;;;3.40;;
33864;SDS011;20159;51.072;13.526;2022-11-03T07:59:00;6.63;;;3.58;;
33864;SDS011;20159;51.072;13.526;2022-11-03T08:01:47;7.65;;;3.25;;
33864;SDS011;20159;51.072;13.526;2022-11-03T08:04:19;8.85;;;3.17;;
33864;SDS011;20159;51.072;13.526;2022-11-03T08:06:48;5.75;;;2.95;;
33864;SDS011;20159;51.072;13.526;2022-11-03T08:09:15;8.93;;;3.58;;
33864;SDS011;20159;51.072;13.526;2022-11-03T08:11:41;10.48;;;4.10;;
33864;SDS011;20159;51.072;13.526;2022-11-03T08:14:06;9.88;;;4.47;;
33864;SDS011;20159;51.072;13.526;2022-11-03T08:16:32;8.98;;;3.78;;
33864;SDS011;20159;51.072;13.526;2022-11-03T08:18:57;6.22;;;2.63;;
33864;SDS011;20159;51.072;13.526;2022-11-03T08:21:23;6.28;;;2.50;;
33864;SDS011;20159;51.072;13.526;2022-11-03T08:23:49;6.80;;;2.53;;
33864;SDS011;20159;51.072;13.526;2022-11-03T08:26:15;8.02;;;2.75;;
33864;SDS011;20159;51.072;13.526;2022-11-03T08:28:40;10.48;;;2.90;;
33864;SDS011;20159;51.072;13.526;2022-11-03T08:31:06;6.47;;;2.65;;
33864;SDS011;20159;51.072;13.526;2022-11-03T08:33:32;10.13;;;3.08;;
33864;SDS011;20159;51.072;13.526;2022-11-03T08:35:58;9.10;;;2.90;;
33864;SDS011;20159;51.072;13.526;2022-11-03T08:38:25;7.03;;;2.67;;
33864;SDS011;20159;51.072;13.526;2022-11-03T08:40:51;5.68;;;2.50;;
33864;SDS011;20159;51.072;13.526;2022-11-03T08:43:17;8.00;;;2.58;;
33864;SDS011;20159;51.072;13.526;2022-11-03T08:45:43;5.45;;;2.58;;
33864;SDS011;20159;51.072;13.526;2022-11-03T08:48:09;3.80;;;2.30;;
33864;SDS011;20159;51.072;13.526;2022-11-03T08:50:35;6.90;;;2.55;;
33864;SDS011;20159;51.072;13.526;2022-11-03T08:53:01;5.95;;;2.75;;
33864;SDS011;20159;51.072;13.526;2022-11-03T08:55:26;3.45;;;2.08;;
33864;SDS011;20159;51.072;13.526;2022-11-03T08:57:52;7.18;;;2.80;;
33864;SDS011;20159;51.072;13.526;2022-11-03T09:00:17;13.65;;;3.28;;
33864;SDS011;20159;51.072;13.526;2022-11-03T09:02:43;7.95;;;3.13;;
33864;SDS011;20159;51.072;13.526;2022-11-03T09:05:10;10.50;;;3.70;;
33864;SDS011;20159;51.072;13.526;2022-11-03T09:07:37;5.38;;;3.08;;
33864;SDS011;20159;51.072;13.526;2022-11-03T09:10:03;6.43;;;3.50;;
33864;SDS011;20159;51.072;13.526;2022-11-03T09:12:30;7.53;;;3.28;;
33864;SDS011;20159;51.072;13.526;2022-11-03T09:14:56;6.50;;;3.10;;
33864;SDS011;20159;51.072;13.526;2022-11-03T09:17:21;9.18;;;3.10;;
33864;SDS011;20159;51.072;13.526;2022-11-03T09:19:47;6.40;;;3.25;;
33864;SDS011;20159;51.072;13.526;2022-11-03T09:22:13;6.55;;;3.45;;
33864;SDS011;20159;51.072;13.526;2022-11-03T09:24:38;7.63;;;3.40;;
33864;SDS011;20159;51.072;13.526;2022-11-03T09:27:04;6.82;;;2.88;;
33864;SDS011;20159;51.072;13.526;2022-11-03T09:29:29;4.15;;;2.65;;
33864;SDS011;20159;51.072;13.526;2022-11-03T09:31:55;6.93;;;2.42;;
33864;SDS011;20159;51.072;13.526;2022-11-03T09:34:20;7.80;;;2.65;;
33864;SDS011;20159;51.072;13.526;2022-11-03T09:36:46;6.63;;;2.80;;
33864;SDS011;20159;51.072;13.526;2022-11-03T09:39:11;3.97;;;2.40;;
33864;SDS011;20159;51.072;13.526;2022-11-03T09:41:37;5.82;;;2.70;;
33864;SDS011;20159;51.072;13.526;2022-11-03T09:44:02;6.05;;;2.53;;
33864;SDS011;20159;51.072;13.526;2022-11-03T09:46:28;6.10;;;2.92;;
33864;SDS011;20159;51.072;13.526;2022-11-03T09:48:54;5.97;;;2.97;;
33864;SDS011;20159;51.072;13.526;2022-11-03T09:51:21;7.97;;;3.03;;
33864;SDS011;20159;51.072;13.526;2022-11-03T09:53:47;8.25;;;3.13;;
33864;SDS011;20159;51.072;13.526;2022-11-03T09:56:14;5.78;;;2.80;;
33864;SDS011;20159;51.072;13.526;2022-11-03T09:58:45;5.45;;;2.97;;
33864;SDS011;20159;51.072;13.526;2022-11-03T10:01:11;5.65;;;3.00;;
33864;SDS011;20159;51.072;13.526;2022-11-03T10:03:37;6.55;;;2.78;;
33864;SDS011;20159;51.072;13.526;2022-11-03T10:06:04;5.80;;;2.80;;
33864;SDS011;20159;51.072;13.526;2022-11-03T10:08:31;5.70;;;2.85;;
33864;SDS011;20159;51.072;13.526;2022-11-03T10:10:59;4.97;;;2.70;;
33864;SDS011;20159;51.072;13.526;2022-11-03T10:15:53;6.18;;;2.17;;
33864;SDS011;20159;51.072;13.526;2022-11-03T10:18:20;6.10;;;2.20;;
33864;SDS011;20159;51.072;13.526;2022-11-03T10:20:46;5.72;;;2.05;;
33864;SDS011;20159;51.072;13.526;2022-11-03T10:23:11;4.18;;;1.92;;
33864;SDS011;20159;51.072;13.526;2022-11-03T10:25:38;5.43;;;2.28;;
33864;SDS011;20159;51.072;13.526;2022-11-03T10:28:12;4.28;;;2.28;;
33864;SDS011;20159;51.072;13.526;2022-11-03T10:35:50;4.63;;;1.75;;
33864;SDS011;20159;51.072;13.526;2022-11-03T10:38:20;5.38;;;1.77;;
33864;SDS011;20159;51.072;13.526;2022-11-03T10:40:54;4.90;;;1.60;;
33864;SDS011;20159;51.072;13.526;2022-11-03T10:43:20;2.80;;;1.10;;
33864;SDS011;20159;51.072;13.526;2022-11-03T10:45:46;3.38;;;1.38;;
33864;SDS011;20159;51.072;13.526;2022-11-03T10:48:13;3.42;;;1.30;;
33864;SDS011;20159;51.072;13.526;2022-11-03T10:50:39;2.55;;;0.95;;
33864;SDS011;20159;51.072;13.526;2022-11-03T10:53:10;3.22;;;1.13;;
33864;SDS011;20159;51.072;13.526;2022-11-03T10:55:42;3.42;;;0.93;;
33864;SDS011;20159;51.072;13.526;2022-11-03T10:58:08;1.85;;;0.80;;
33864;SDS011;20159;51.072;13.526;2022-11-03T11:00:34;2.33;;;1.23;;
33864;SDS011;20159;51.072;13.526;2022-11-03T11:03:00;2.33;;;0.98;;
33864;SDS011;20159;51.072;13.526;2022-11-03T11:05:25;3.05;;;1.02;;
33864;SDS011;20159;51.072;13.526;2022-11-03T11:07:52;2.42;;;0.90;;
33864;SDS011;20159;51.072;13.526;2022-11-03T11:10:22;3.38;;;0.82;;
33864;SDS011;20159;51.072;13.526;2022-11-03T11:15:44;4.75;;;1.40;;
33864;SDS011;20159;51.072;13.526;2022-11-03T11:26:11;3.50;;;1.00;;
33864;SDS011;20159;51.072;13.526;2022-11-03T11:28:39;3.85;;;1.20;;
33864;SDS011;20159;51.072;13.526;2022-11-03T11:52:46;2.75;;;1.23;;
33864;SDS011;20159;51.072;13.526;2022-11-03T11:57:49;3.53;;;1.33;;
33864;SDS011;20159;51.072;13.526;2022-11-03T12:00:22;3.28;;;1.33;;
33864;SDS011;20159;51.072;13.526;2022-11-03T12:02:50;2.58;;;1.10;;
33864;SDS011;20159;51.072;13.526;2022-11-03T12:05:20;3.83;;;1.20;;
33864;SDS011;20159;51.072;13.526;2022-11-03T12:07:48;3.55;;;1.25;;
33864;SDS011;20159;51.072;13.526;2022-11-03T12:10:17;5.28;;;1.40;;
33864;SDS011;20159;51.072;13.526;2022-11-03T12:12:44;2.10;;;1.17;;
33864;SDS011;20159;51.072;13.526;2022-11-03T12:20:54;3.83;;;2.08;;
33864;SDS011;20159;51.072;13.526;2022-11-03T12:23:33;2.90;;;1.27;;
33864;SDS011;20159;51.072;13.526;2022-11-03T12:26:00;3.63;;;2.45;;
33864;SDS011;20159;51.072;13.526;2022-11-03T12:28:30;6.80;;;4.70;;
33864;SDS011;20159;51.072;13.526;2022-11-03T12:30:59;6.15;;;3.42;;
33864;SDS011;20159;51.072;13.526;2022-11-03T12:33:26;10.23;;;6.35;;
33864;SDS011;20159;51.072;13.526;2022-11-03T12:35:53;7.18;;;4.63;;
33864;SDS011;20159;51.072;13.526;2022-11-03T12:38:19;4.50;;;3.00;;
33864;SDS011;20159;51.072;13.526;2022-11-03T12:40:44;4.88;;;2.67;;
33864;SDS011;20159;51.072;13.526;2022-11-03T12:43:10;4.78;;;2.85;;
33864;SDS011;20159;51.072;13.526;2022-11-03T12:45:35;4.07;;;2.15;;
33864;SDS011;20159;51.072;13.526;2022-11-03T12:48:01;3.72;;;1.90;;
33864;SDS011;20159;51.072;13.526;2022-11-03T12:50:26;3.15;;;1.42;;
33864;SDS011;20159;51.072;13.526;2022-11-03T12:52:52;3.95;;;1.50;;
33864;SDS011;20159;51.072;13.526;2022-11-03T12:55:18;4.28;;;1.55;;
33864;SDS011;20159;51.072;13.526;2022-11-03T12:57:43;3.80;;;1.85;;
33864;SDS011;20159;51.072;13.526;2022-11-03T13:00:10;3.65;;;1.15;;
33864;SDS011;20159;51.072;13.526;2022-11-03T13:02:36;4.15;;;1.40;;
33864;SDS011;20159;51.072;13.526;2022-11-03T13:05:03;3.78;;;1.40;;
33864;SDS011;20159;51.072;13.526;2022-11-03T13:07:29;3.58;;;1.40;;
33864;SDS011;20159;51.072;13.526;2022-11-03T13:09:55;4.32;;;1.40;;
33864;SDS011;20159;51.072;13.526;2022-11-03T13:12:20;4.07;;;1.55;;
33864;SDS011;20159;51.072;13.526;2022-11-03T13:14:55;3.63;;;1.48;;
33864;SDS011;20159;51.072;13.526;2022-11-03T13:17:31;5.68;;;1.70;;
33864;SDS011;20159;51.072;13.526;2022-11-03T13:19:57;7.53;;;2.10;;
33864;SDS011;20159;51.072;13.526;2022-11-03T13:22:23;4.25;;;1.67;;
33864;SDS011;20159;51.072;13.526;2022-11-03T13:24:49;3.97;;;1.65;;
33864;SDS011;20159;51.072;13.526;2022-11-03T13:27:15;3.42;;;1.65;;
33864;SDS011;20159;51.072;13.526;2022-11-03T13:29:41;3.70;;;1.70;;
33864;SDS011;20159;51.072;13.526;2022-11-03T13:32:07;3.63;;;1.48;;
33864;SDS011;20159;51.072;13.526;2022-11-03T13:34:32;4.60;;;1.67;;
33864;SDS011;20159;51.072;13.526;2022-11-03T13:36:58;3.33;;;1.45;;
33864;SDS011;20159;51.072;13.526;2022-11-03T13:39:23;3.70;;;1.60;;
33864;SDS011;20159;51.072;13.526;2022-11-03T13:41:49;3.70;;;1.55;;
33864;SDS011;20159;51.072;13.526;2022-11-03T13:44:15;4.53;;;1.92;;
33864;SDS011;20159;51.072;13.526;2022-11-03T13:46:40;4.68;;;1.80;;
33864;SDS011;20159;51.072;13.526;2022-11-03T13:49:06;3.05;;;1.65;;
33864;SDS011;20159;51.072;13.526;2022-11-03T13:51:32;5.55;;;2.10;;
33864;SDS011;20159;51.072;13.526;2022-11-03T13:53:57;5.28;;;2.20;;
33864;SDS011;20159;51.072;13.526;2022-11-03T13:56:23;6.22;;;2.25;;
33864;SDS011;20159;51.072;13.526;2022-11-03T13:58:49;5.28;;;1.95;;
33864;SDS011;20159;51.072;13.526;2022-11-03T14:01:15;5.40;;;2.33;;
33864;SDS011;20159;51.072;13.526;2022-11-03T14:03:40;5.05;;;1.92;;
33864;SDS011;20159;51.072;13.526;2022-11-03T14:06:06;6.40;;;2.40;;
33864;SDS011;20159;51.072;13.526;2022-11-03T14:08:32;5.95;;;2.20;;
33864;SDS011;20159;51.072;13.526;2022-11-03T14:10:57;5.95;;;1.85;;
33864;SDS011;20159;51.072;13.526;2022-11-03T14:13:23;4.85;;;2.15;;
33864;SDS011;20159;51.072;13.526;2022-11-03T14:15:48;5.82;;;2.20;;
33864;SDS011;20159;51.072;13.526;2022-11-03T14:18:14;5.00;;;2.15;;
33864;SDS011;20159;51.072;13.526;2022-11-03T14:20:40;5.30;;;2.58;;
33864;SDS011;20159;51.072;13.526;2022-11-03T14:23:05;4.75;;;2.10;;
33864;SDS011;20159;51.072;13.526;2022-11-03T14:25:31;6.53;;;2.88;;
33864;SDS011;20159;51.072;13.526;2022-11-03T14:27:56;6.60;;;3.08;;
33864;SDS011;20159;51.072;13.526;2022-11-03T14:30:22;7.57;;;2.72;;
33864;SDS011;20159;51.072;13.526;2022-11-03T14:32:47;4.88;;;2.70;;
33864;SDS011;20159;51.072;13.526;2022-11-03T14:35:13;9.65;;;2.95;;
33864;SDS011;20159;51.072;13.526;2022-11-03T14:37:38;4.50;;;2.33;;
33864;SDS011;20159;51.072;13.526;2022-11-03T14:40:04;6.38;;;2.60;;
33864;SDS011;20159;51.072;13.526;2022-11-03T14:42:31;4.75;;;2.65;;
33864;SDS011;20159;51.072;13.526;2022-11-03T14:44:56;6.65;;;2.90;;
33864;SDS011;20159;51.072;13.526;2022-11-03T14:47:22;5.18;;;2.70;;
33864;SDS011;20159;51.072;13.526;2022-11-03T14:49:49;5.05;;;3.10;;
33864;SDS011;20159;51.072;13.526;2022-11-03T14:52:15;7.15;;;3.10;;
33864;SDS011;20159;51.072;13.526;2022-11-03T14:54:41;5.47;;;2.95;;
33864;SDS011;20159;51.072;13.526;2022-11-03T14:57:07;5.22;;;2.78;;
33864;SDS011;20159;51.072;13.526;2022-11-03T14:59:34;5.55;;;2.90;;
33864;SDS011;20159;51.072;13.526;2022-11-03T15:02:00;6.20;;;3.33;;
33864;SDS011;20159;51.072;13.526;2022-11-03T15:04:25;6.18;;;3.30;;
33864;SDS011;20159;51.072;13.526;2022-11-03T15:06:51;5.65;;;3.20;;
33864;SDS011;20159;51.072;13.526;2022-11-03T15:09:17;7.32;;;3.83;;
33864;SDS011;20159;51.072;13.526;2022-11-03T15:11:43;7.25;;;4.20;;
33864;SDS011;20159;51.072;13.526;2022-11-03T15:14:09;7.55;;;3.90;;
33864;SDS011;20159;51.072;13.526;2022-11-03T15:16:35;10.25;;;4.40;;
33864;SDS011;20159;51.072;13.526;2022-11-03T15:19:02;8.65;;;4.45;;
33864;SDS011;20159;51.072;13.526;2022-11-03T15:21:28;8.00;;;4.22;;
33864;SDS011;20159;51.072;13.526;2022-11-03T15:23:54;6.78;;;4.50;;
33864;SDS011;20159;51.072;13.526;2022-11-03T15:26:20;8.52;;;4.72;;
33864;SDS011;20159;51.072;13.526;2022-11-03T15:28:46;7.82;;;5.07;;
33864;SDS011;20159;51.072;13.526;2022-11-03T15:31:11;7.50;;;4.00;;
33864;SDS011;20159;51.072;13.526;2022-11-03T15:33:37;6.68;;;4.32;;
33864;SDS011;20159;51.072;13.526;2022-11-03T15:36:03;7.85;;;4.32;;
33864;SDS011;20159;51.072;13.526;2022-11-03T15:38:30;9.23;;;4.85;;
33864;SDS011;20159;51.072;13.526;2022-11-03T15:40:56;8.05;;;4.53;;
33864;SDS011;20159;51.072;13.526;2022-11-03T15:43:42;7.40;;;4.60;;
33864;SDS011;20159;51.072;13.526;2022-11-03T15:46:09;8.95;;;4.95;;
33864;SDS011;20159;51.072;13.526;2022-11-03T15:48:35;9.15;;;4.82;;
33864;SDS011;20159;51.072;13.526;2022-11-03T15:51:02;8.18;;;4.75;;
33864;SDS011;20159;51.072;13.526;2022-11-03T15:53:28;6.72;;;4.25;;
33864;SDS011;20159;51.072;13.526;2022-11-03T15:55:53;7.65;;;4.85;;
33864;SDS011;20159;51.072;13.526;2022-11-03T15:58:19;11.55;;;5.03;;
33864;SDS011;20159;51.072;13.526;2022-11-03T16:00:44;8.00;;;5.25;;
33864;SDS011;20159;51.072;13.526;2022-11-03T16:03:10;8.55;;;4.65;;
33864;SDS011;20159;51.072;13.526;2022-11-03T16:05:35;8.70;;;5.10;;